sensor_id;sensor_type;location;lat;lon;timestamp;P1;durP1;ratioP1;P2;durP2;ratioP2
14472;SDS011;7322;50.872;4.386;2023-04-01T00:04:01;4.90;;;3.10;;
14472;SDS011;7322;50.872;4.386;2023-04-01T00:06:30;4.57;;;2.87;;
14472;SDS011;7322;50.872;4.386;2023-04-01T00:08:59;4.87;;;3.07;;
14472;SDS011;7322;50.872;4.386;2023-04-01T00:11:28;4.43;;;2.67;;
14472;SDS011;7322;50.872;4.386;2023-04-01T00:13:56;5.23;;;2.83;;
14472;SDS011;7322;50.872;4.386;2023-04-01T00:16:23;4.57;;;2.90;;
14472;SDS011;7322;50.872;4.386;2023-04-01T00:18:50;5.00;;;3.20;;
14472;SDS011;7322;50.872;4.386;2023-04-01T00:21:18;4.50;;;2.80;;
14472;SDS011;7322;50.872;4.386;2023-04-01T00:23:46;5.20;;;2.93;;
14472;SDS011;7322;50.872;4.386;2023-04-01T00:26:16;3.80;;;2.97;;
14472;SDS011;7322;50.872;4.386;2023-04-01T00:28:48;5.27;;;3.03;;
14472;SDS011;7322;50.872;4.386;2023-04-01T00:31:15;4.60;;;2.97;;
14472;SDS011;7322;50.872;4.386;2023-04-01T00:33:44;4.50;;;2.70;;
14472;SDS011;7322;50.872;4.386;2023-04-01T00:36:12;4.63;;;3.23;;
14472;SDS011;7322;50.872;4.386;2023-04-01T00:38:41;4.63;;;3.13;;
14472;SDS011;7322;50.872;4.386;2023-04-01T00:41:09;4.67;;;2.90;;
14472;SDS011;7322;50.872;4.386;2023-04-01T00:43:40;5.37;;;2.80;;
14472;SDS011;7322;50.872;4.386;2023-04-01T00:46:10;3.40;;;2.50;;
14472;SDS011;7322;50.872;4.386;2023-04-01T00:48:39;4.93;;;3.00;;
14472;SDS011;7322;50.872;4.386;2023-04-01T00:51:11;5.00;;;3.00;;
14472;SDS011;7322;50.872;4.386;2023-04-01T00:53:43;5.00;;;2.70;;
14472;SDS011;7322;50.872;4.386;2023-04-01T00:56:16;4.43;;;2.97;;
14472;SDS011;7322;50.872;4.386;2023-04-01T00:58:49;4.13;;;2.50;;
14472;SDS011;7322;50.872;4.386;2023-04-01T01:01:28;4.47;;;2.97;;
14472;SDS011;7322;50.872;4.386;2023-04-01T01:03:57;4.60;;;2.80;;
14472;SDS011;7322;50.872;4.386;2023-04-01T01:06:30;4.03;;;2.50;;
14472;SDS011;7322;50.872;4.386;2023-04-01T01:11:54;4.03;;;2.70;;
14472;SDS011;7322;50.872;4.386;2023-04-01T01:14:31;3.70;;;2.50;;
14472;SDS011;7322;50.872;4.386;2023-04-01T01:17:22;3.50;;;2.63;;
14472;SDS011;7322;50.872;4.386;2023-04-01T01:23:29;3.60;;;2.43;;
14472;SDS011;7322;50.872;4.386;2023-04-01T01:26:18;3.30;;;2.70;;
14472;SDS011;7322;50.872;4.386;2023-04-01T01:29:05;3.43;;;2.50;;
14472;SDS011;7322;50.872;4.386;2023-04-01T01:31:43;4.03;;;2.40;;
14472;SDS011;7322;50.872;4.386;2023-04-01T01:34:17;3.93;;;2.47;;
14472;SDS011;7322;50.872;4.386;2023-04-01T01:36:56;4.37;;;2.60;;
14472;SDS011;7322;50.872;4.386;2023-04-01T01:39:28;3.27;;;2.50;;
14472;SDS011;7322;50.872;4.386;2023-04-01T01:41:57;3.57;;;2.47;;
14472;SDS011;7322;50.872;4.386;2023-04-01T01:44:30;3.97;;;2.30;;
14472;SDS011;7322;50.872;4.386;2023-04-01T01:47:00;3.83;;;2.40;;
14472;SDS011;7322;50.872;4.386;2023-04-01T01:49:42;3.47;;;2.27;;
14472;SDS011;7322;50.872;4.386;2023-04-01T01:52:22;4.00;;;2.60;;
14472;SDS011;7322;50.872;4.386;2023-04-01T01:54:55;4.03;;;2.80;;
14472;SDS011;7322;50.872;4.386;2023-04-01T01:57:23;4.60;;;2.60;;
14472;SDS011;7322;50.872;4.386;2023-04-01T02:02:57;3.97;;;2.63;;
14472;SDS011;7322;50.872;4.386;2023-04-01T02:08:49;2.77;;;2.10;;
14472;SDS011;7322;50.872;4.386;2023-04-01T02:20:23;3.40;;;2.30;;
14472;SDS011;7322;50.872;4.386;2023-04-01T02:26:16;2.63;;;2.03;;
14472;SDS011;7322;50.872;4.386;2023-04-01T02:28:44;3.73;;;2.40;;
14472;SDS011;7322;50.872;4.386;2023-04-01T02:50:17;2.73;;;2.13;;
14472;SDS011;7322;50.872;4.386;2023-04-01T02:55:44;3.20;;;2.00;;
14472;SDS011;7322;50.872;4.386;2023-04-01T02:58:13;3.00;;;2.03;;
14472;SDS011;7322;50.872;4.386;2023-04-01T03:00:41;3.53;;;2.23;;
14472;SDS011;7322;50.872;4.386;2023-04-01T03:03:08;5.60;;;2.07;;
14472;SDS011;7322;50.872;4.386;2023-04-01T03:05:40;2.87;;;1.87;;
14472;SDS011;7322;50.872;4.386;2023-04-01T03:08:07;1.90;;;1.67;;
14472;SDS011;7322;50.872;4.386;2023-04-01T03:10:37;2.67;;;2.00;;
14472;SDS011;7322;50.872;4.386;2023-04-01T03:13:04;2.60;;;2.00;;
14472;SDS011;7322;50.872;4.386;2023-04-01T03:15:32;2.13;;;1.80;;
14472;SDS011;7322;50.872;4.386;2023-04-01T03:17:59;2.93;;;1.80;;
14472;SDS011;7322;50.872;4.386;2023-04-01T03:20:28;2.77;;;2.03;;
14472;SDS011;7322;50.872;4.386;2023-04-01T03:22:57;2.80;;;2.00;;
14472;SDS011;7322;50.872;4.386;2023-04-01T03:25:24;4.57;;;2.10;;
14472;SDS011;7322;50.872;4.386;2023-04-01T03:27:53;2.53;;;2.00;;
14472;SDS011;7322;50.872;4.386;2023-04-01T03:30:21;2.23;;;1.90;;
14472;SDS011;7322;50.872;4.386;2023-04-01T03:32:54;2.47;;;1.97;;
14472;SDS011;7322;50.872;4.386;2023-04-01T03:35:22;2.43;;;1.60;;
14472;SDS011;7322;50.872;4.386;2023-04-01T03:37:54;3.67;;;1.80;;
14472;SDS011;7322;50.872;4.386;2023-04-01T03:40:25;2.20;;;1.73;;
14472;SDS011;7322;50.872;4.386;2023-04-01T03:43:01;2.73;;;1.80;;
14472;SDS011;7322;50.872;4.386;2023-04-01T03:45:30;3.57;;;1.87;;
14472;SDS011;7322;50.872;4.386;2023-04-01T03:47:59;2.23;;;1.60;;
14472;SDS011;7322;50.872;4.386;2023-04-01T03:50:28;3.90;;;2.17;;
14472;SDS011;7322;50.872;4.386;2023-04-01T03:52:56;3.53;;;1.57;;
14472;SDS011;7322;50.872;4.386;2023-04-01T03:55:25;2.13;;;1.63;;
14472;SDS011;7322;50.872;4.386;2023-04-01T03:57:56;3.00;;;1.90;;
14472;SDS011;7322;50.872;4.386;2023-04-01T04:00:24;2.30;;;1.50;;
14472;SDS011;7322;50.872;4.386;2023-04-01T04:02:56;2.80;;;2.00;;
14472;SDS011;7322;50.872;4.386;2023-04-01T04:05:25;2.60;;;1.93;;
14472;SDS011;7322;50.872;4.386;2023-04-01T04:07:53;2.90;;;1.83;;
14472;SDS011;7322;50.872;4.386;2023-04-01T04:10:21;1.97;;;1.40;;
14472;SDS011;7322;50.872;4.386;2023-04-01T04:12:51;2.10;;;1.70;;
14472;SDS011;7322;50.872;4.386;2023-04-01T04:15:20;2.03;;;1.60;;
14472;SDS011;7322;50.872;4.386;2023-04-01T04:17:49;4.10;;;1.90;;
14472;SDS011;7322;50.872;4.386;2023-04-01T04:20:16;2.87;;;1.97;;
14472;SDS011;7322;50.872;4.386;2023-04-01T04:22:44;2.73;;;1.70;;
14472;SDS011;7322;50.872;4.386;2023-04-01T04:25:11;2.37;;;1.80;;
14472;SDS011;7322;50.872;4.386;2023-04-01T04:27:40;2.50;;;1.67;;
14472;SDS011;7322;50.872;4.386;2023-04-01T04:30:09;2.17;;;1.70;;
14472;SDS011;7322;50.872;4.386;2023-04-01T04:32:38;2.73;;;1.70;;
14472;SDS011;7322;50.872;4.386;2023-04-01T04:35:06;1.50;;;1.23;;
14472;SDS011;7322;50.872;4.386;2023-04-01T04:40:05;2.47;;;1.67;;
14472;SDS011;7322;50.872;4.386;2023-04-01T04:42:40;2.53;;;1.67;;
14472;SDS011;7322;50.872;4.386;2023-04-01T04:45:10;2.47;;;1.70;;
14472;SDS011;7322;50.872;4.386;2023-04-01T04:47:38;2.67;;;1.50;;
14472;SDS011;7322;50.872;4.386;2023-04-01T04:50:08;1.97;;;1.43;;
14472;SDS011;7322;50.872;4.386;2023-04-01T04:52:38;1.53;;;1.40;;
14472;SDS011;7322;50.872;4.386;2023-04-01T04:55:08;2.10;;;1.63;;
14472;SDS011;7322;50.872;4.386;2023-04-01T04:57:37;3.10;;;1.60;;
14472;SDS011;7322;50.872;4.386;2023-04-01T05:00:04;2.57;;;1.40;;
14472;SDS011;7322;50.872;4.386;2023-04-01T05:02:35;2.87;;;1.60;;
14472;SDS011;7322;50.872;4.386;2023-04-01T05:05:02;2.40;;;1.53;;
14472;SDS011;7322;50.872;4.386;2023-04-01T05:07:30;1.70;;;1.40;;
14472;SDS011;7322;50.872;4.386;2023-04-01T05:09:57;2.47;;;1.50;;
14472;SDS011;7322;50.872;4.386;2023-04-01T05:12:24;2.90;;;1.50;;
14472;SDS011;7322;50.872;4.386;2023-04-01T05:14:53;2.60;;;1.70;;
14472;SDS011;7322;50.872;4.386;2023-04-01T05:17:21;2.27;;;1.57;;
14472;SDS011;7322;50.872;4.386;2023-04-01T05:19:50;2.57;;;1.50;;
14472;SDS011;7322;50.872;4.386;2023-04-01T05:22:18;3.73;;;1.40;;
14472;SDS011;7322;50.872;4.386;2023-04-01T05:24:46;1.77;;;1.37;;
14472;SDS011;7322;50.872;4.386;2023-04-01T05:27:14;1.40;;;1.30;;
14472;SDS011;7322;50.872;4.386;2023-04-01T05:29:42;1.93;;;1.50;;
14472;SDS011;7322;50.872;4.386;2023-04-01T05:32:15;2.00;;;1.40;;
14472;SDS011;7322;50.872;4.386;2023-04-01T05:34:42;1.70;;;1.50;;
14472;SDS011;7322;50.872;4.386;2023-04-01T05:37:17;2.20;;;1.60;;
14472;SDS011;7322;50.872;4.386;2023-04-01T05:39:44;2.10;;;1.37;;
14472;SDS011;7322;50.872;4.386;2023-04-01T05:42:12;1.77;;;1.23;;
14472;SDS011;7322;50.872;4.386;2023-04-01T05:44:40;2.30;;;1.50;;
14472;SDS011;7322;50.872;4.386;2023-04-01T05:47:07;1.40;;;1.20;;
14472;SDS011;7322;50.872;4.386;2023-04-01T05:49:35;3.13;;;1.53;;
14472;SDS011;7322;50.872;4.386;2023-04-01T05:52:03;2.73;;;1.50;;
14472;SDS011;7322;50.872;4.386;2023-04-01T05:54:33;1.80;;;1.30;;
14472;SDS011;7322;50.872;4.386;2023-04-01T05:57:00;1.40;;;1.30;;
14472;SDS011;7322;50.872;4.386;2023-04-01T05:59:28;1.70;;;1.37;;
14472;SDS011;7322;50.872;4.386;2023-04-01T06:01:57;3.27;;;1.57;;
14472;SDS011;7322;50.872;4.386;2023-04-01T06:04:26;1.60;;;1.20;;
14472;SDS011;7322;50.872;4.386;2023-04-01T06:06:59;1.53;;;1.20;;
14472;SDS011;7322;50.872;4.386;2023-04-01T06:09:29;1.87;;;1.37;;
14472;SDS011;7322;50.872;4.386;2023-04-01T06:14:53;2.20;;;1.40;;
14472;SDS011;7322;50.872;4.386;2023-04-01T06:17:26;3.40;;;1.60;;
14472;SDS011;7322;50.872;4.386;2023-04-01T06:20:06;2.53;;;1.40;;
14472;SDS011;7322;50.872;4.386;2023-04-01T06:22:45;1.90;;;1.07;;
14472;SDS011;7322;50.872;4.386;2023-04-01T06:40:47;2.90;;;1.43;;
14472;SDS011;7322;50.872;4.386;2023-04-01T06:43:45;1.30;;;1.20;;
14472;SDS011;7322;50.872;4.386;2023-04-01T06:46:26;2.63;;;1.43;;
14472;SDS011;7322;50.872;4.386;2023-04-01T06:49:06;2.03;;;1.13;;
14472;SDS011;7322;50.872;4.386;2023-04-01T06:51:43;1.33;;;1.10;;
14472;SDS011;7322;50.872;4.386;2023-04-01T06:54:20;2.50;;;1.30;;
14472;SDS011;7322;50.872;4.386;2023-04-01T06:56:58;2.43;;;1.23;;
14472;SDS011;7322;50.872;4.386;2023-04-01T06:59:31;1.87;;;1.20;;
14472;SDS011;7322;50.872;4.386;2023-04-01T07:02:04;5.23;;;1.20;;
14472;SDS011;7322;50.872;4.386;2023-04-01T07:04:42;3.10;;;1.30;;
14472;SDS011;7322;50.872;4.386;2023-04-01T07:07:14;1.43;;;1.10;;
14472;SDS011;7322;50.872;4.386;2023-04-01T07:09:48;1.73;;;1.00;;
14472;SDS011;7322;50.872;4.386;2023-04-01T07:12:19;3.17;;;1.27;;
14472;SDS011;7322;50.872;4.386;2023-04-01T07:14:54;1.20;;;1.10;;
14472;SDS011;7322;50.872;4.386;2023-04-01T07:17:24;4.07;;;1.40;;
14472;SDS011;7322;50.872;4.386;2023-04-01T07:19:56;2.53;;;1.23;;
14472;SDS011;7322;50.872;4.386;2023-04-01T07:22:29;2.60;;;1.10;;
14472;SDS011;7322;50.872;4.386;2023-04-01T07:25:01;2.70;;;1.20;;
14472;SDS011;7322;50.872;4.386;2023-04-01T07:27:31;2.13;;;1.10;;
14472;SDS011;7322;50.872;4.386;2023-04-01T07:30:00;2.97;;;1.10;;
14472;SDS011;7322;50.872;4.386;2023-04-01T07:32:33;2.90;;;1.00;;
14472;SDS011;7322;50.872;4.386;2023-04-01T07:35:13;3.17;;;1.33;;
14472;SDS011;7322;50.872;4.386;2023-04-01T07:37:51;1.60;;;0.90;;
14472;SDS011;7322;50.872;4.386;2023-04-01T07:40:39;1.17;;;1.00;;
14472;SDS011;7322;50.872;4.386;2023-04-01T07:46:21;2.33;;;1.10;;
14472;SDS011;7322;50.872;4.386;2023-04-01T07:49:03;2.60;;;1.10;;
14472;SDS011;7322;50.872;4.386;2023-04-01T07:51:37;2.80;;;1.10;;
14472;SDS011;7322;50.872;4.386;2023-04-01T07:54:14;1.63;;;0.90;;
14472;SDS011;7322;50.872;4.386;2023-04-01T07:56:48;1.50;;;1.10;;
14472;SDS011;7322;50.872;4.386;2023-04-01T07:59:21;2.37;;;1.00;;
14472;SDS011;7322;50.872;4.386;2023-04-01T08:01:57;1.93;;;0.97;;
14472;SDS011;7322;50.872;4.386;2023-04-01T08:04:41;2.77;;;1.00;;
14472;SDS011;7322;50.872;4.386;2023-04-01T08:07:20;1.67;;;1.07;;
14472;SDS011;7322;50.872;4.386;2023-04-01T08:09:51;1.87;;;1.23;;
14472;SDS011;7322;50.872;4.386;2023-04-01T08:12:27;1.87;;;1.07;;
14472;SDS011;7322;50.872;4.386;2023-04-01T08:15:09;2.07;;;1.10;;
14472;SDS011;7322;50.872;4.386;2023-04-01T08:17:47;1.67;;;0.90;;
14472;SDS011;7322;50.872;4.386;2023-04-01T08:20:30;2.03;;;1.10;;
14472;SDS011;7322;50.872;4.386;2023-04-01T08:23:04;1.40;;;0.90;;
14472;SDS011;7322;50.872;4.386;2023-04-01T08:25:39;2.17;;;1.00;;
14472;SDS011;7322;50.872;4.386;2023-04-01T08:28:13;1.90;;;1.10;;
14472;SDS011;7322;50.872;4.386;2023-04-01T08:30:45;2.83;;;1.10;;
14472;SDS011;7322;50.872;4.386;2023-04-01T08:33:19;2.37;;;1.00;;
14472;SDS011;7322;50.872;4.386;2023-04-01T08:35:54;6.40;;;1.20;;
14472;SDS011;7322;50.872;4.386;2023-04-01T08:38:28;4.43;;;1.03;;
14472;SDS011;7322;50.872;4.386;2023-04-01T08:41:00;1.93;;;1.00;;
14472;SDS011;7322;50.872;4.386;2023-04-01T08:43:41;3.70;;;1.20;;
14472;SDS011;7322;50.872;4.386;2023-04-01T08:49:41;6.00;;;1.40;;
14472;SDS011;7322;50.872;4.386;2023-04-01T08:52:26;5.27;;;1.20;;
14472;SDS011;7322;50.872;4.386;2023-04-01T08:58:03;3.23;;;1.27;;
14472;SDS011;7322;50.872;4.386;2023-04-01T09:00:43;5.60;;;1.30;;
14472;SDS011;7322;50.872;4.386;2023-04-01T09:03:25;2.77;;;1.30;;
14472;SDS011;7322;50.872;4.386;2023-04-01T09:06:16;5.10;;;1.30;;
14472;SDS011;7322;50.872;4.386;2023-04-01T09:18:04;3.53;;;1.10;;
14472;SDS011;7322;50.872;4.386;2023-04-01T09:20:51;3.87;;;1.30;;
14472;SDS011;7322;50.872;4.386;2023-04-01T09:23:33;3.60;;;1.30;;
14472;SDS011;7322;50.872;4.386;2023-04-01T09:29:04;3.60;;;1.30;;
14472;SDS011;7322;50.872;4.386;2023-04-01T09:31:47;2.97;;;1.20;;
14472;SDS011;7322;50.872;4.386;2023-04-01T09:34:30;2.10;;;1.30;;
14472;SDS011;7322;50.872;4.386;2023-04-01T09:37:19;3.63;;;1.30;;
14472;SDS011;7322;50.872;4.386;2023-04-01T09:40:08;3.83;;;1.30;;
14472;SDS011;7322;50.872;4.386;2023-04-01T09:42:49;2.00;;;1.07;;
14472;SDS011;7322;50.872;4.386;2023-04-01T09:45:41;3.20;;;1.30;;
14472;SDS011;7322;50.872;4.386;2023-04-01T09:48:15;4.40;;;1.40;;
14472;SDS011;7322;50.872;4.386;2023-04-01T09:50:52;1.80;;;1.00;;
14472;SDS011;7322;50.872;4.386;2023-04-01T09:53:36;2.17;;;0.80;;
14472;SDS011;7322;50.872;4.386;2023-04-01T09:56:23;2.27;;;1.00;;
14472;SDS011;7322;50.872;4.386;2023-04-01T10:21:36;3.50;;;1.00;;
14472;SDS011;7322;50.872;4.386;2023-04-01T10:24:37;1.50;;;1.10;;
14472;SDS011;7322;50.872;4.386;2023-04-01T10:27:56;2.60;;;0.90;;
14472;SDS011;7322;50.872;4.386;2023-04-01T10:37:10;3.00;;;1.00;;
14472;SDS011;7322;50.872;4.386;2023-04-01T10:39:56;1.60;;;0.90;;
14472;SDS011;7322;50.872;4.386;2023-04-01T10:49:28;1.63;;;0.80;;
14472;SDS011;7322;50.872;4.386;2023-04-01T11:14:35;1.20;;;0.90;;
14472;SDS011;7322;50.872;4.386;2023-04-01T11:26:55;1.03;;;0.90;;
14472;SDS011;7322;50.872;4.386;2023-04-01T11:38:42;1.70;;;0.90;;
14472;SDS011;7322;50.872;4.386;2023-04-01T11:44:16;1.53;;;0.80;;
14472;SDS011;7322;50.872;4.386;2023-04-01T11:46:48;1.92;;;1.10;;
14472;SDS011;7322;50.872;4.386;2023-04-01T11:52:44;5.43;;;1.30;;
14472;SDS011;7322;50.872;4.386;2023-04-01T11:55:32;2.70;;;1.10;;
14472;SDS011;7322;50.872;4.386;2023-04-01T12:01:31;1.33;;;1.00;;
14472;SDS011;7322;50.872;4.386;2023-04-01T12:07:36;0.87;;;0.80;;
14472;SDS011;7322;50.872;4.386;2023-04-01T12:13:09;1.50;;;0.83;;
14472;SDS011;7322;50.872;4.386;2023-04-01T12:19:00;2.30;;;1.10;;
14472;SDS011;7322;50.872;4.386;2023-04-01T12:21:43;1.37;;;0.90;;
14472;SDS011;7322;50.872;4.386;2023-04-01T12:46:26;1.40;;;1.07;;
14472;SDS011;7322;50.872;4.386;2023-04-01T13:05:01;1.37;;;0.90;;
14472;SDS011;7322;50.872;4.386;2023-04-01T13:10:56;1.57;;;1.00;;
14472;SDS011;7322;50.872;4.386;2023-04-01T13:16:42;1.70;;;0.90;;
14472;SDS011;7322;50.872;4.386;2023-04-01T13:19:16;1.20;;;0.87;;
14472;SDS011;7322;50.872;4.386;2023-04-01T13:24:47;1.20;;;0.80;;
14472;SDS011;7322;50.872;4.386;2023-04-01T13:30:26;0.70;;;0.70;;
14472;SDS011;7322;50.872;4.386;2023-04-01T13:35:58;1.10;;;1.00;;
14472;SDS011;7322;50.872;4.386;2023-04-01T13:42:04;0.80;;;0.63;;
14472;SDS011;7322;50.872;4.386;2023-04-01T13:51:20;0.87;;;0.80;;
14472;SDS011;7322;50.872;4.386;2023-04-01T13:54:20;0.80;;;0.80;;
14472;SDS011;7322;50.872;4.386;2023-04-01T13:56:57;2.40;;;0.90;;
14472;SDS011;7322;50.872;4.386;2023-04-01T14:02:53;0.83;;;0.67;;
14472;SDS011;7322;50.872;4.386;2023-04-01T14:05:48;1.40;;;0.80;;
14472;SDS011;7322;50.872;4.386;2023-04-01T14:08:35;1.23;;;0.77;;
14472;SDS011;7322;50.872;4.386;2023-04-01T14:11:23;0.90;;;0.80;;
14472;SDS011;7322;50.872;4.386;2023-04-01T14:14:02;0.70;;;0.67;;
14472;SDS011;7322;50.872;4.386;2023-04-01T14:22:46;1.40;;;0.80;;
14472;SDS011;7322;50.872;4.386;2023-04-01T14:28:35;2.00;;;0.70;;
14472;SDS011;7322;50.872;4.386;2023-04-01T14:49:14;1.23;;;0.80;;
14472;SDS011;7322;50.872;4.386;2023-04-01T14:51:46;1.00;;;0.70;;
14472;SDS011;7322;50.872;4.386;2023-04-01T14:54:17;0.70;;;0.67;;
14472;SDS011;7322;50.872;4.386;2023-04-01T14:56:49;2.93;;;1.00;;
14472;SDS011;7322;50.872;4.386;2023-04-01T14:59:28;3.73;;;1.70;;
14472;SDS011;7322;50.872;4.386;2023-04-01T15:02:14;6.73;;;2.43;;
14472;SDS011;7322;50.872;4.386;2023-04-01T15:05:16;10.67;;;3.33;;
14472;SDS011;7322;50.872;4.386;2023-04-01T15:13:31;15.33;;;5.57;;
14472;SDS011;7322;50.872;4.386;2023-04-01T15:16:27;18.20;;;5.70;;
14472;SDS011;7322;50.872;4.386;2023-04-01T15:19:05;17.80;;;5.93;;
14472;SDS011;7322;50.872;4.386;2023-04-01T15:21:47;14.37;;;6.00;;
14472;SDS011;7322;50.872;4.386;2023-04-01T15:24:40;19.10;;;6.20;;
14472;SDS011;7322;50.872;4.386;2023-04-01T15:30:33;18.07;;;6.40;;
14472;SDS011;7322;50.872;4.386;2023-04-01T15:36:04;14.43;;;6.23;;
14472;SDS011;7322;50.872;4.386;2023-04-01T15:38:56;17.60;;;6.00;;
14472;SDS011;7322;50.872;4.386;2023-04-01T15:41:35;20.13;;;5.87;;
14472;SDS011;7322;50.872;4.386;2023-04-01T15:47:40;14.87;;;4.73;;
14472;SDS011;7322;50.872;4.386;2023-04-01T15:53:34;14.47;;;4.93;;
14472;SDS011;7322;50.872;4.386;2023-04-01T15:56:15;12.10;;;4.57;;
14472;SDS011;7322;50.872;4.386;2023-04-01T15:58:53;16.77;;;5.00;;
14472;SDS011;7322;50.872;4.386;2023-04-01T16:01:33;11.63;;;4.83;;
14472;SDS011;7322;50.872;4.386;2023-04-01T16:07:30;12.13;;;4.73;;
14472;SDS011;7322;50.872;4.386;2023-04-01T16:10:17;15.00;;;4.73;;
14472;SDS011;7322;50.872;4.386;2023-04-01T16:19:32;13.00;;;4.47;;
14472;SDS011;7322;50.872;4.386;2023-04-01T16:22:16;14.50;;;4.50;;
14472;SDS011;7322;50.872;4.386;2023-04-01T16:24:50;13.70;;;4.50;;
14472;SDS011;7322;50.872;4.386;2023-04-01T16:27:37;10.57;;;3.93;;
14472;SDS011;7322;50.872;4.386;2023-04-01T16:36:41;10.33;;;3.97;;
14472;SDS011;7322;50.872;4.386;2023-04-01T16:39:20;8.53;;;3.63;;
14472;SDS011;7322;50.872;4.386;2023-04-01T16:54:35;8.30;;;3.30;;
14472;SDS011;7322;50.872;4.386;2023-04-01T16:57:18;10.63;;;3.77;;
14472;SDS011;7322;50.872;4.386;2023-04-01T17:02:49;8.67;;;3.50;;
14472;SDS011;7322;50.872;4.386;2023-04-01T17:23:47;7.20;;;2.97;;
14472;SDS011;7322;50.872;4.386;2023-04-01T17:32:53;7.30;;;2.80;;
14472;SDS011;7322;50.872;4.386;2023-04-01T17:45:28;7.77;;;2.70;;
14472;SDS011;7322;50.872;4.386;2023-04-01T17:51:17;5.67;;;2.70;;
14472;SDS011;7322;50.872;4.386;2023-04-01T18:00:13;7.47;;;2.70;;
14472;SDS011;7322;50.872;4.386;2023-04-01T18:02:57;4.93;;;2.53;;
14472;SDS011;7322;50.872;4.386;2023-04-01T18:05:39;4.77;;;2.20;;
14472;SDS011;7322;50.872;4.386;2023-04-01T18:08:25;5.97;;;2.77;;
14472;SDS011;7322;50.872;4.386;2023-04-01T18:11:06;6.77;;;2.37;;
14472;SDS011;7322;50.872;4.386;2023-04-01T18:16:49;5.47;;;2.23;;
14472;SDS011;7322;50.872;4.386;2023-04-01T18:19:33;7.20;;;2.40;;
14472;SDS011;7322;50.872;4.386;2023-04-01T18:22:28;5.13;;;2.50;;
14472;SDS011;7322;50.872;4.386;2023-04-01T18:27:41;5.03;;;2.00;;
14472;SDS011;7322;50.872;4.386;2023-04-01T18:30:13;5.13;;;2.30;;
14472;SDS011;7322;50.872;4.386;2023-04-01T18:32:46;7.70;;;2.33;;
14472;SDS011;7322;50.872;4.386;2023-04-01T18:35:22;5.57;;;2.10;;
14472;SDS011;7322;50.872;4.386;2023-04-01T18:38:04;7.07;;;2.40;;
14472;SDS011;7322;50.872;4.386;2023-04-01T18:40:38;5.37;;;2.33;;
14472;SDS011;7322;50.872;4.386;2023-04-01T18:43:12;6.57;;;2.30;;
14472;SDS011;7322;50.872;4.386;2023-04-01T18:45:49;5.30;;;2.33;;
14472;SDS011;7322;50.872;4.386;2023-04-01T18:51:16;4.93;;;1.80;;
14472;SDS011;7322;50.872;4.386;2023-04-01T18:53:48;6.03;;;1.97;;
14472;SDS011;7322;50.872;4.386;2023-04-01T18:56:27;6.30;;;2.10;;
14472;SDS011;7322;50.872;4.386;2023-04-01T18:59:05;5.27;;;2.37;;
14472;SDS011;7322;50.872;4.386;2023-04-01T19:01:39;6.77;;;2.30;;
14472;SDS011;7322;50.872;4.386;2023-04-01T19:04:20;6.80;;;1.90;;
14472;SDS011;7322;50.872;4.386;2023-04-01T19:06:58;4.50;;;2.00;;
14472;SDS011;7322;50.872;4.386;2023-04-01T19:09:29;6.07;;;2.10;;
14472;SDS011;7322;50.872;4.386;2023-04-01T19:15:14;6.37;;;2.00;;
14472;SDS011;7322;50.872;4.386;2023-04-01T19:27:18;4.90;;;2.00;;
14472;SDS011;7322;50.872;4.386;2023-04-01T19:32:58;6.57;;;2.60;;
14472;SDS011;7322;50.872;4.386;2023-04-01T19:35:36;5.87;;;1.93;;
14472;SDS011;7322;50.872;4.386;2023-04-01T19:38:28;5.80;;;2.20;;
14472;SDS011;7322;50.872;4.386;2023-04-01T19:41:12;4.00;;;1.77;;
14472;SDS011;7322;50.872;4.386;2023-04-01T19:43:59;5.10;;;1.70;;
14472;SDS011;7322;50.872;4.386;2023-04-01T19:46:53;6.00;;;1.87;;
14472;SDS011;7322;50.872;4.386;2023-04-01T19:58:33;5.00;;;1.60;;
14472;SDS011;7322;50.872;4.386;2023-04-01T20:01:17;5.90;;;1.90;;
14472;SDS011;7322;50.872;4.386;2023-04-01T20:07:06;5.70;;;1.73;;
14472;SDS011;7322;50.872;4.386;2023-04-01T20:49:56;3.13;;;1.80;;
14472;SDS011;7322;50.872;4.386;2023-04-01T20:55:47;4.10;;;1.83;;
14472;SDS011;7322;50.872;4.386;2023-04-01T20:58:35;3.17;;;1.70;;
14472;SDS011;7322;50.872;4.386;2023-04-01T21:01:29;3.07;;;1.80;;
14472;SDS011;7322;50.872;4.386;2023-04-01T21:04:22;3.30;;;1.40;;
14472;SDS011;7322;50.872;4.386;2023-04-01T21:12:46;3.53;;;1.73;;
14472;SDS011;7322;50.872;4.386;2023-04-01T21:15:38;3.23;;;1.87;;
14472;SDS011;7322;50.872;4.386;2023-04-01T21:21:44;2.87;;;1.70;;
14472;SDS011;7322;50.872;4.386;2023-04-01T21:24:36;3.43;;;1.60;;
14472;SDS011;7322;50.872;4.386;2023-04-01T21:27:20;3.20;;;1.47;;
14472;SDS011;7322;50.872;4.386;2023-04-01T21:33:08;3.40;;;1.50;;
14472;SDS011;7322;50.872;4.386;2023-04-01T21:35:53;3.97;;;1.57;;
14472;SDS011;7322;50.872;4.386;2023-04-01T21:38:38;2.33;;;1.60;;
14472;SDS011;7322;50.872;4.386;2023-04-01T21:41:29;3.67;;;1.97;;
14472;SDS011;7322;50.872;4.386;2023-04-01T21:50:54;2.90;;;1.70;;
14472;SDS011;7322;50.872;4.386;2023-04-01T21:54:17;2.37;;;1.77;;
14472;SDS011;7322;50.872;4.386;2023-04-01T22:00:20;2.83;;;1.47;;
14472;SDS011;7322;50.872;4.386;2023-04-01T22:06:02;3.20;;;1.77;;
14472;SDS011;7322;50.872;4.386;2023-04-01T22:14:14;3.00;;;1.40;;
14472;SDS011;7322;50.872;4.386;2023-04-01T22:16:54;2.03;;;1.60;;
14472;SDS011;7322;50.872;4.386;2023-04-01T22:26:05;2.13;;;1.40;;
14472;SDS011;7322;50.872;4.386;2023-04-01T22:28:51;3.33;;;1.67;;
14472;SDS011;7322;50.872;4.386;2023-04-01T22:31:24;4.43;;;1.60;;
14472;SDS011;7322;50.872;4.386;2023-04-01T22:34:00;2.93;;;1.80;;
14472;SDS011;7322;50.872;4.386;2023-04-01T22:36:35;2.37;;;1.43;;
14472;SDS011;7322;50.872;4.386;2023-04-01T22:39:16;2.07;;;1.50;;
14472;SDS011;7322;50.872;4.386;2023-04-01T22:41:58;2.10;;;1.50;;
14472;SDS011;7322;50.872;4.386;2023-04-01T22:44:40;2.00;;;1.40;;
14472;SDS011;7322;50.872;4.386;2023-04-01T22:47:19;2.63;;;1.70;;
14472;SDS011;7322;50.872;4.386;2023-04-01T22:52:36;3.13;;;1.60;;
14472;SDS011;7322;50.872;4.386;2023-04-01T22:55:08;2.70;;;1.50;;
14472;SDS011;7322;50.872;4.386;2023-04-01T22:57:40;2.33;;;1.37;;
14472;SDS011;7322;50.872;4.386;2023-04-01T23:00:22;2.17;;;1.50;;
14472;SDS011;7322;50.872;4.386;2023-04-01T23:05:46;1.67;;;1.37;;
14472;SDS011;7322;50.872;4.386;2023-04-01T23:11:46;1.80;;;1.50;;
14472;SDS011;7322;50.872;4.386;2023-04-01T23:17:25;1.50;;;1.23;;
14472;SDS011;7322;50.872;4.386;2023-04-01T23:26:17;2.00;;;1.30;;
14472;SDS011;7322;50.872;4.386;2023-04-01T23:29:07;2.17;;;1.43;;
14472;SDS011;7322;50.872;4.386;2023-04-01T23:31:41;1.83;;;1.23;;
14472;SDS011;7322;50.872;4.386;2023-04-01T23:34:21;2.40;;;1.47;;
14472;SDS011;7322;50.872;4.386;2023-04-01T23:36:52;1.90;;;1.40;;
14472;SDS011;7322;50.872;4.386;2023-04-01T23:39:30;1.53;;;1.40;;
14472;SDS011;7322;50.872;4.386;2023-04-01T23:44:47;1.50;;;1.40;;
14472;SDS011;7322;50.872;4.386;2023-04-01T23:47:20;2.30;;;1.43;;
14472;SDS011;7322;50.872;4.386;2023-04-01T23:52:52;1.77;;;1.30;;
14472;SDS011;7322;50.872;4.386;2023-04-01T23:55:31;2.27;;;1.33;;
14472;SDS011;7322;50.872;4.386;2023-04-01T23:58:12;1.93;;;1.47;;
